Terminal Aerodrome Forecast
Issued by NWS

Current Version | Previous Version | Graphics & Text | Print | Product List | Glossary On
Versions: 1 2 3 4 5 6 7 8 9 10 11 12 13 14 15 16 17 18 19 20 21 22
000
FTUS41 KPBZ 202300
TAFHLG
TAF
KHLG 202323Z 2100/2124 18010KT P6SM SCT040
     FM210900 20007KT P6SM VCSH BKN015
     FM211400 24012G22KT 4SM -SHRA OVC025
     FM212200 28010KT P6SM BKN035=

USA.gov is the U.S. government's official web portal to all federal, state and local government web resources and services.